createdAt,value
2016-07-04T00:00:26.131Z,45.04
2016-07-04T00:01:26.132Z,45.04
2016-07-04T00:02:25.527Z,45.14
2016-07-04T00:03:26.148Z,45.82
2016-07-04T00:04:25.538Z,45.92
2016-07-04T00:05:26.155Z,45.62
2016-07-04T00:06:26.158Z,45.34
2016-07-04T00:07:25.553Z,45.34
2016-07-04T00:08:26.167Z,45.24
2016-07-04T00:09:26.172Z,45.14
2016-07-04T00:10:26.183Z,45.43
2016-07-04T00:11:25.569Z,45.72
2016-07-04T00:12:25.578Z,45.72
2016-07-04T00:13:26.196Z,45.82
2016-07-04T00:14:26.204Z,45.72
2016-07-04T00:15:25.593Z,45.82
2016-07-04T00:16:25.599Z,45.72
2016-07-04T00:17:26.220Z,45.43
2016-07-04T00:18:25.662Z,45.72
2016-07-04T00:19:25.666Z,45.62
2016-07-04T00:20:25.666Z,45.72
2016-07-04T00:21:26.237Z,45.62
2016-07-04T00:22:26.240Z,45.72
2016-07-04T00:23:26.243Z,45.24
2016-07-04T00:24:26.245Z,45.72
2016-07-04T00:25:26.251Z,45.62
2016-07-04T00:26:26.256Z,45.82
2016-07-04T00:27:26.265Z,45.72
2016-07-04T00:28:26.270Z,45.72
2016-07-04T00:29:26.282Z,45.72
2016-07-04T00:30:26.283Z,45.92
2016-07-04T00:31:26.280Z,45.72
2016-07-04T00:32:26.295Z,45.62
2016-07-04T00:33:26.311Z,45.72
2016-07-04T00:34:26.293Z,45.62
2016-07-04T00:35:25.690Z,45.62
2016-07-04T00:36:26.307Z,45.62
2016-07-04T00:37:25.703Z,45.72
2016-07-04T00:38:26.316Z,45.53
2016-07-04T00:39:26.320Z,45.62
2016-07-04T00:40:26.328Z,45.62
2016-07-04T00:41:26.338Z,45.82
2016-07-04T00:42:26.335Z,45.92
2016-07-04T00:43:26.346Z,45.62
2016-07-04T00:44:26.354Z,45.82
2016-07-04T00:45:26.357Z,45.72
2016-07-04T00:46:26.361Z,45.72
2016-07-04T00:47:26.379Z,45.92
2016-07-04T00:48:25.754Z,45.82
2016-07-04T00:49:25.777Z,46.01
2016-07-04T00:50:26.376Z,45.92
2016-07-04T00:51:25.772Z,45.92
2016-07-04T00:52:26.389Z,45.82
2016-07-04T00:53:25.786Z,45.82
2016-07-04T00:54:26.397Z,45.92
2016-07-04T00:55:26.408Z,45.92
2016-07-04T00:56:25.796Z,45.82
2016-07-04T00:57:25.804Z,45.92
2016-07-04T00:58:26.420Z,45.92
2016-07-04T00:59:25.817Z,46.01
2016-07-04T01:00:25.814Z,45.62
2016-07-04T01:01:25.819Z,45.92
2016-07-04T01:02:26.443Z,45.92
2016-07-04T01:03:26.450Z,45.92
2016-07-04T01:04:25.850Z,45.72
2016-07-04T01:05:26.459Z,45.92
2016-07-04T01:06:26.473Z,45.82
2016-07-04T01:07:25.909Z,45.92
2016-07-04T01:08:25.856Z,46.01
2016-07-04T01:09:25.923Z,45.43
2016-07-04T01:10:25.865Z,45.92
2016-07-04T01:11:25.929Z,45.72
2016-07-04T01:12:26.488Z,46.01
2016-07-04T01:13:26.494Z,45.53
2016-07-04T01:14:26.502Z,46.01
2016-07-04T01:15:25.889Z,45.62
2016-07-04T01:16:26.506Z,45.92
2016-07-04T01:17:25.898Z,46.11
2016-07-04T01:18:25.901Z,46.01
2016-07-04T01:19:26.526Z,45.43
2016-07-04T01:20:26.527Z,46.01
2016-07-04T01:21:26.532Z,46.01
2016-07-04T01:22:26.533Z,46.01
2016-07-04T01:23:25.928Z,46.11
2016-07-04T01:24:26.543Z,45.92
2016-07-04T01:25:26.552Z,46.01
2016-07-04T01:26:25.942Z,45.92
2016-07-04T01:27:26.562Z,45.72
2016-07-04T01:28:25.952Z,45.82
2016-07-04T01:29:26.570Z,45.82
2016-07-04T01:30:26.574Z,46.3
2016-07-04T01:31:25.966Z,46.01
2016-07-04T01:32:25.970Z,45.62
2016-07-04T01:33:26.588Z,46.3
2016-07-04T01:34:26.592Z,45.92
2016-07-04T01:35:26.597Z,45.92
2016-07-04T01:36:26.603Z,46.3
2016-07-04T01:37:26.603Z,45.92
2016-07-04T01:38:26.614Z,46.3
2016-07-04T01:39:26.616Z,46.4
2016-07-04T01:40:26.619Z,46.3
2016-07-04T01:41:26.014Z,46.2
2016-07-04T01:42:26.624Z,46.3
2016-07-04T01:43:26.018Z,46.3
2016-07-04T01:44:26.024Z,46.3
2016-07-04T01:45:26.645Z,45.62
2016-07-04T01:46:26.650Z,45.62
2016-07-04T01:47:26.653Z,46.3
2016-07-04T01:48:26.654Z,46.4
2016-07-04T01:49:26.662Z,46.3
2016-07-04T01:50:26.676Z,46.3
2016-07-04T01:51:26.671Z,46.2
2016-07-04T01:52:26.679Z,46.2
2016-07-04T01:53:26.680Z,46.3
2016-07-04T01:54:26.070Z,46.3
2016-07-04T01:55:26.690Z,46.49
2016-07-04T01:56:26.696Z,46.2
2016-07-04T01:57:26.083Z,46.3
2016-07-04T01:58:26.700Z,46.3
2016-07-04T01:59:26.095Z,46.3
2016-07-04T02:00:26.715Z,46.4
2016-07-04T02:01:26.725Z,45.72
2016-07-04T02:02:26.718Z,46.2
2016-07-04T02:03:26.721Z,46.3
2016-07-04T02:04:26.117Z,46.2
2016-07-04T02:05:26.738Z,45.62
2016-07-04T02:06:26.742Z,46.3
2016-07-04T02:07:26.136Z,46.2
2016-07-04T02:08:26.752Z,46.3
2016-07-04T02:09:26.805Z,46.01
2016-07-04T02:10:26.202Z,45.62
2016-07-04T02:11:26.766Z,45.62
2016-07-04T02:12:26.877Z,45.62
2016-07-04T02:13:26.869Z,45.92
2016-07-04T02:14:26.165Z,45.53
2016-07-04T02:15:26.335Z,45.62
2016-07-04T02:16:26.885Z,45.92
2016-07-04T02:17:26.794Z,46.11
2016-07-04T02:18:26.186Z,45.82
2016-07-04T02:19:26.190Z,45.92
2016-07-04T02:20:26.810Z,45.92
2016-07-04T02:21:26.257Z,45.92
2016-07-04T02:22:26.817Z,46.01
2016-07-04T02:23:26.822Z,45.92
2016-07-04T02:24:26.823Z,45.92
2016-07-04T02:25:26.833Z,45.92
2016-07-04T02:26:26.839Z,45.82
2016-07-04T02:27:26.841Z,45.82
2016-07-04T02:28:26.848Z,45.82
2016-07-04T02:29:26.239Z,46.01
2016-07-04T02:30:26.245Z,45.82
2016-07-04T02:31:26.862Z,45.82
2016-07-04T02:32:26.252Z,45.82
2016-07-04T02:33:26.872Z,45.92
2016-07-04T02:34:26.877Z,45.92
2016-07-04T02:35:26.882Z,45.92
2016-07-04T02:36:26.274Z,45.92
2016-07-04T02:37:26.890Z,45.82
2016-07-04T02:38:26.897Z,46.01
2016-07-04T02:39:26.899Z,46.11
2016-07-04T02:40:26.902Z,45.82
2016-07-04T02:41:26.294Z,45.92
2016-07-04T02:42:26.298Z,45.92
2016-07-04T02:43:26.917Z,45.92
2016-07-04T02:44:26.921Z,45.82
2016-07-04T02:45:26.309Z,45.62
2016-07-04T02:46:26.928Z,46.01
2016-07-04T02:47:26.938Z,45.72
2016-07-04T02:48:26.940Z,45.72
2016-07-04T02:49:26.332Z,45.53
2016-07-04T02:50:26.331Z,46.11
2016-07-04T02:51:26.341Z,45.53
2016-07-04T02:52:26.343Z,45.92
2016-07-04T02:53:26.964Z,45.43
2016-07-04T02:54:26.970Z,45.92
2016-07-04T02:55:26.974Z,45.43
2016-07-04T02:56:26.976Z,46.01
2016-07-04T02:57:26.372Z,45.82
2016-07-04T02:58:26.986Z,45.53
2016-07-04T02:59:26.994Z,45.82
2016-07-04T03:00:26.378Z,46.3
2016-07-04T03:01:26.996Z,45.72
2016-07-04T03:02:26.392Z,46.11
2016-07-04T03:03:27.007Z,46.3
2016-07-04T03:04:26.400Z,46.3
2016-07-04T03:05:26.407Z,46.2
2016-07-04T03:06:27.022Z,46.49
2016-07-04T03:07:26.415Z,46.2
2016-07-04T03:08:27.031Z,46.49
2016-07-04T03:09:27.040Z,46.11
2016-07-04T03:10:27.040Z,46.11
2016-07-04T03:11:27.048Z,46.2
2016-07-04T03:12:27.049Z,46.11
2016-07-04T03:13:27.058Z,46.4
2016-07-04T03:14:27.058Z,46.11
2016-07-04T03:15:27.061Z,46.01
2016-07-04T03:16:27.067Z,46.2
2016-07-04T03:17:27.071Z,46.11
2016-07-04T03:18:27.075Z,46.3
2016-07-04T03:19:26.464Z,46.2
2016-07-04T03:20:27.083Z,46.3
2016-07-04T03:21:26.622Z,46.2
2016-07-04T03:22:26.475Z,46.2
2016-07-04T03:23:27.096Z,46.2
2016-07-04T03:24:27.096Z,46.3
2016-07-04T03:25:27.108Z,46.3
2016-07-04T03:26:26.501Z,46.2
2016-07-04T03:27:26.508Z,46.2
2016-07-04T03:28:27.121Z,46.2
2016-07-04T03:29:27.127Z,46.3
2016-07-04T03:30:26.518Z,46.4
2016-07-04T03:31:27.136Z,46.2
2016-07-04T03:32:27.141Z,46.4
2016-07-04T03:33:27.147Z,46.2
2016-07-04T03:34:26.538Z,46.2
2016-07-04T03:35:26.545Z,46.01
2016-07-04T03:36:27.161Z,46.2
2016-07-04T03:37:27.166Z,46.2
2016-07-04T03:38:27.168Z,46.3
2016-07-04T03:39:26.560Z,46.3
2016-07-04T03:40:27.177Z,46.2
2016-07-04T03:41:27.176Z,46.2
2016-07-04T03:42:27.180Z,46.11
2016-07-04T03:43:27.190Z,46.11
2016-07-04T03:44:26.576Z,46.11
2016-07-04T03:45:26.583Z,46.4
2016-07-04T03:46:26.590Z,46.49
2016-07-04T03:47:26.598Z,46.2
2016-07-04T03:48:27.213Z,46.4
2016-07-04T03:49:26.605Z,46.2
2016-07-04T03:50:27.222Z,46.3
2016-07-04T03:51:27.226Z,46.59
2016-07-04T03:52:26.618Z,46.69
2016-07-04T03:53:26.626Z,46.01
2016-07-04T03:54:26.629Z,46.2
2016-07-04T03:55:26.633Z,46.4
2016-07-04T03:56:27.243Z,46.2
2016-07-04T03:57:26.645Z,46.2
2016-07-04T03:58:26.648Z,46.11
2016-07-04T03:59:27.268Z,46.11
2016-07-04T04:00:27.271Z,46.11
2016-07-04T04:01:27.276Z,46.49
2016-07-04T04:02:27.281Z,46.3
2016-07-04T04:03:26.671Z,46.4
2016-07-04T04:04:27.287Z,46.11
2016-07-04T04:05:26.682Z,46.11
2016-07-04T04:06:27.299Z,46.01
2016-07-04T04:07:27.306Z,46.11
2016-07-04T04:08:27.309Z,46.2
2016-07-04T04:09:26.702Z,46.3
2016-07-04T04:10:27.312Z,46.11
2016-07-04T04:11:27.324Z,46.2
2016-07-04T04:12:27.328Z,46.01
2016-07-04T04:13:27.334Z,46.49
2016-07-04T04:14:27.338Z,46.2
2016-07-04T04:15:26.731Z,46.11
2016-07-04T04:16:26.734Z,46.11
2016-07-04T04:17:27.353Z,46.11
2016-07-04T04:18:26.749Z,46.11
2016-07-04T04:19:26.756Z,46.2
2016-07-04T04:20:27.373Z,46.3
2016-07-04T04:21:27.435Z,46.3
2016-07-04T04:22:26.768Z,46.2
2016-07-04T04:23:26.770Z,46.11
2016-07-04T04:24:27.393Z,46.2
2016-07-04T04:25:27.397Z,46.2
2016-07-04T04:26:27.400Z,46.2
2016-07-04T04:27:27.406Z,46.3
2016-07-04T04:28:27.411Z,46.01
2016-07-04T04:29:27.416Z,46.3
2016-07-04T04:30:27.420Z,46.11
2016-07-04T04:31:27.434Z,46.3
2016-07-04T04:32:27.431Z,46.2
2016-07-04T04:33:27.434Z,46.3
2016-07-04T04:34:26.824Z,46.2
2016-07-04T04:35:27.446Z,46.3
2016-07-04T04:36:27.451Z,46.11
2016-07-04T04:37:27.455Z,46.11
2016-07-04T04:38:27.454Z,46.01
2016-07-04T04:39:26.851Z,46.2
2016-07-04T04:40:26.851Z,46.3
2016-07-04T04:41:27.477Z,46.2
2016-07-04T04:42:26.866Z,46.2
2016-07-04T04:43:26.865Z,46.2
2016-07-04T04:44:27.484Z,46.3
2016-07-04T04:45:27.491Z,46.2
2016-07-04T04:46:27.509Z,46.3
2016-07-04T04:47:26.895Z,46.3
2016-07-04T04:48:27.511Z,46.01
2016-07-04T04:49:27.517Z,45.94
2016-07-04T04:50:27.536Z,46.3
2016-07-04T04:51:27.527Z,46.4
2016-07-04T04:52:26.917Z,45.55
2016-07-04T04:53:26.928Z,45.65
2016-07-04T04:54:27.541Z,45.75
2016-07-04T04:55:26.936Z,45.07
2016-07-04T04:56:27.552Z,45.55
2016-07-04T04:57:27.559Z,45.55
2016-07-04T04:58:26.948Z,45.45
2016-07-04T04:59:26.956Z,45.28
2016-07-04T05:00:27.572Z,44.9
2016-07-04T05:01:27.579Z,45.09
2016-07-04T05:02:27.584Z,45
2016-07-04T05:03:27.590Z,44.9
2016-07-04T05:04:26.977Z,45
2016-07-04T05:05:27.601Z,44.8
2016-07-04T05:06:26.993Z,44.8
2016-07-04T05:07:27.000Z,44.8
2016-07-04T05:08:27.618Z,45
2016-07-04T05:09:27.689Z,44.9
2016-07-04T05:10:27.031Z,44.51
2016-07-04T05:11:27.023Z,44.8
2016-07-04T05:12:27.641Z,44.9
2016-07-04T05:13:27.035Z,45
2016-07-04T05:14:27.657Z,44.8
2016-07-04T05:15:27.047Z,44.51
2016-07-04T05:16:27.068Z,44.51
2016-07-04T05:17:27.062Z,44.6
2016-07-04T05:18:27.678Z,44.8
2016-07-04T05:19:27.688Z,44.51
2016-07-04T05:20:27.078Z,44.24
2016-07-04T05:21:27.694Z,44.15
2016-07-04T05:22:27.703Z,44.05
2016-07-04T05:23:27.098Z,44.15
2016-07-04T05:24:27.718Z,44.05
2016-07-04T05:25:27.111Z,44.15
2016-07-04T05:26:27.729Z,43.85
2016-07-04T05:27:27.121Z,43.85
2016-07-04T05:28:27.126Z,43.85
2016-07-04T05:29:27.749Z,44.07
2016-07-04T05:30:27.757Z,44.07
2016-07-04T05:31:27.149Z,43.95
2016-07-04T05:32:27.769Z,44.24
2016-07-04T05:33:27.776Z,43.68
2016-07-04T05:34:27.784Z,44.07
2016-07-04T05:35:27.171Z,43.47
2016-07-04T05:36:27.196Z,43.4
2016-07-04T05:37:27.194Z,43.2
2016-07-04T05:38:27.193Z,43.59
2016-07-04T05:39:27.833Z,43.37
2016-07-04T05:40:27.826Z,44.07
2016-07-04T05:41:27.833Z,43.76
2016-07-04T05:42:27.838Z,43.78
2016-07-04T05:43:27.235Z,44.05
2016-07-04T05:44:27.242Z,44.34
2016-07-04T05:45:27.857Z,44.34
2016-07-04T05:46:27.251Z,43.76
2016-07-04T05:47:27.878Z,44.05
2016-07-04T05:48:28.952Z,43.4
2016-07-04T05:49:27.272Z,43.3
2016-07-04T05:50:27.276Z,42.91
2016-07-04T05:51:27.898Z,43.01
2016-07-04T05:52:27.296Z,43.2
2016-07-04T05:53:27.918Z,43.49
2016-07-04T05:54:27.921Z,43.1
2016-07-04T05:55:27.931Z,42.72
2016-07-04T05:56:27.943Z,42.72
2016-07-04T05:57:27.951Z,42.74
2016-07-04T05:58:27.345Z,42.83
2016-07-04T05:59:27.347Z,42.62
2016-07-04T06:00:27.975Z,42.35
2016-07-04T06:01:27.980Z,42.25
2016-07-04T06:02:27.378Z,42.55
2016-07-04T06:03:27.997Z,42.83
2016-07-04T06:04:27.394Z,42.16
2016-07-04T06:05:28.016Z,42.74
2016-07-04T06:06:28.030Z,42.35
2016-07-04T06:07:27.416Z,42.45
2016-07-04T06:08:27.428Z,42.25
2016-07-04T06:09:28.045Z,42.45
2016-07-04T06:10:28.062Z,42.66
2016-07-04T06:11:28.070Z,41.79
2016-07-04T06:12:27.454Z,41.79
2016-07-04T06:13:28.078Z,42.37
2016-07-04T06:14:28.084Z,41.99
2016-07-04T06:15:28.103Z,41.89
2016-07-04T06:16:28.116Z,41.6
2016-07-04T06:17:27.505Z,41.5
2016-07-04T06:18:27.505Z,41.79
2016-07-04T06:19:28.139Z,41.21
2016-07-04T06:20:27.525Z,41.6
2016-07-04T06:21:28.206Z,41.79
2016-07-04T06:22:28.164Z,41.6
2016-07-04T06:23:28.172Z,41.6
2016-07-04T06:24:28.182Z,41.5
2016-07-04T06:25:27.574Z,41.62
2016-07-04T06:26:27.587Z,41.42
2016-07-04T06:27:27.593Z,42.18
2016-07-04T06:28:28.216Z,42.28
2016-07-04T06:29:27.612Z,42.16
2016-07-04T06:30:28.229Z,42.55
2016-07-04T06:31:27.626Z,42.55
2016-07-04T06:32:27.634Z,42.65
2016-07-04T06:33:28.258Z,42.65
2016-07-04T06:34:28.259Z,42.93
2016-07-04T06:35:28.273Z,42.83
2016-07-04T06:36:27.664Z,42.83
2016-07-04T06:37:28.288Z,42.65
2016-07-04T06:38:28.293Z,42.93
2016-07-04T06:39:27.705Z,42.74
2016-07-04T06:40:27.697Z,42.65
2016-07-04T06:41:28.316Z,42.83
2016-07-04T06:42:28.326Z,42.83
2016-07-04T06:43:28.328Z,42.83
2016-07-04T06:44:27.725Z,42.65
2016-07-04T06:45:28.342Z,42.35
2016-07-04T06:46:28.641Z,42.74
2016-07-04T06:47:28.372Z,42.25
2016-07-04T06:48:28.365Z,42.45
2016-07-04T06:49:27.760Z,42.45
2016-07-04T06:50:28.373Z,42.74
2016-07-04T06:51:28.388Z,42.57
2016-07-04T06:52:28.391Z,42.37
2016-07-04T06:53:27.791Z,42.37
2016-07-04T06:54:28.412Z,42.45
2016-07-04T06:55:28.420Z,42.83
2016-07-04T06:56:28.428Z,42.25
2016-07-04T06:57:28.680Z,42.45
2016-07-04T06:58:27.824Z,42.07
2016-07-04T06:59:27.840Z,42.35
2016-07-04T07:00:28.459Z,42.35
2016-07-04T07:01:27.849Z,42.74
2016-07-04T07:02:27.856Z,42.25
2016-07-04T07:03:28.478Z,42.35
2016-07-04T07:04:27.878Z,42.57
2016-07-04T07:05:27.897Z,41.5
2016-07-04T07:06:28.507Z,41.7
2016-07-04T07:07:28.505Z,41.79
2016-07-04T07:08:28.515Z,41.31
2016-07-04T07:09:28.523Z,41.33
2016-07-04T07:10:28.531Z,40.36
2016-07-04T07:11:27.928Z,41.42
2016-07-04T07:12:28.547Z,41.04
2016-07-04T07:13:27.941Z,41.11
2016-07-04T07:14:28.661Z,40.75
2016-07-04T07:15:28.579Z,41.04
2016-07-04T07:16:28.588Z,40.65
2016-07-04T07:17:28.595Z,40.48
2016-07-04T07:18:28.605Z,41.16
2016-07-04T07:19:28.616Z,41.33
2016-07-04T07:20:28.011Z,41.72
2016-07-04T07:21:28.016Z,41.04
2016-07-04T07:22:29.042Z,41.42
2016-07-04T07:23:28.648Z,41.16
2016-07-04T07:24:28.064Z,40.94
2016-07-04T07:25:28.671Z,41.62
2016-07-04T07:26:28.676Z,42.2
2016-07-04T07:27:28.686Z,41.79
2016-07-04T07:28:28.695Z,41.52
2016-07-04T07:29:28.699Z,41.33
2016-07-04T07:30:28.100Z,40.86
2016-07-04T07:31:28.718Z,41.33
2016-07-04T07:32:28.117Z,41.14
2016-07-04T07:33:28.130Z,41.82
2016-07-04T07:34:28.753Z,42.49
2016-07-04T07:35:28.760Z,42.47
2016-07-04T07:36:28.153Z,42.28
2016-07-04T07:37:28.179Z,41.79
2016-07-04T07:38:28.171Z,41.11
2016-07-04T07:39:28.791Z,41.33
2016-07-04T07:40:28.186Z,41.04
2016-07-04T07:41:28.807Z,40.67
2016-07-04T07:42:28.202Z,40.28
2016-07-04T07:43:28.822Z,39.9
2016-07-04T07:44:28.222Z,40.38
2016-07-04T07:45:28.229Z,40.67
2016-07-04T07:46:28.876Z,41.33
2016-07-04T07:47:28.860Z,41.04
2016-07-04T07:48:28.863Z,41.11
2016-07-04T07:49:28.277Z,41.42
2016-07-04T07:50:28.271Z,41.52
2016-07-04T07:51:28.945Z,40.65
2016-07-04T07:52:28.511Z,41.24
2016-07-04T07:53:28.993Z,41.24
2016-07-04T07:54:28.302Z,41.52
2016-07-04T07:55:28.322Z,41.42
2016-07-04T07:56:28.935Z,41.52
2016-07-04T07:57:29.032Z,41.89
2016-07-04T07:58:28.940Z,41.5
2016-07-04T07:59:28.953Z,41.52
2016-07-04T08:00:28.347Z,41.52
2016-07-04T08:01:28.350Z,41.72
2016-07-04T08:02:28.356Z,41.62
2016-07-04T08:03:28.368Z,41.52
2016-07-04T08:04:28.987Z,41.5
2016-07-04T08:05:28.397Z,42.37
2016-07-04T08:06:28.384Z,42.66
2016-07-04T08:07:29.009Z,41.79
2016-07-04T08:08:29.013Z,42.28
2016-07-04T08:09:28.407Z,42.47
2016-07-04T08:10:29.037Z,42.76
2016-07-04T08:11:28.422Z,42.28
2016-07-04T08:12:29.050Z,42.28
2016-07-04T08:13:29.054Z,42.47
2016-07-04T08:14:29.059Z,42.66
2016-07-04T08:15:29.070Z,42.47
2016-07-04T08:16:29.075Z,42.28
2016-07-04T08:17:29.083Z,42.28
2016-07-04T08:18:29.101Z,42.76
2016-07-04T08:19:29.095Z,42.76
2016-07-04T08:20:29.105Z,42.47
2016-07-04T08:21:28.506Z,42.47
2016-07-04T08:22:28.494Z,42.65
2016-07-04T08:23:28.502Z,42.74
2016-07-04T08:24:28.514Z,42.83
2016-07-04T08:25:28.577Z,42.83
2016-07-04T08:26:29.141Z,42.25
2016-07-04T08:27:29.148Z,42.45
2016-07-04T08:28:28.542Z,42.65
2016-07-04T08:29:29.159Z,42.25
2016-07-04T08:30:28.554Z,42.65
2016-07-04T08:31:29.169Z,42.93
2016-07-04T08:32:28.569Z,42.65
2016-07-04T08:33:28.569Z,42.74
2016-07-04T08:34:28.582Z,42.65
2016-07-04T08:35:28.588Z,42.93
2016-07-04T08:36:29.211Z,43.03
2016-07-04T08:37:28.604Z,42.74
2016-07-04T08:38:29.220Z,42.83
2016-07-04T08:39:29.229Z,43.23
2016-07-04T08:40:28.624Z,42.83
2016-07-04T08:41:28.627Z,43.32
2016-07-04T08:42:29.246Z,43.23
2016-07-04T08:43:28.640Z,42.93
2016-07-04T08:44:29.261Z,42.93
2016-07-04T08:45:33.178Z,43.23
2016-07-04T08:46:29.274Z,42.93
2016-07-04T08:47:29.283Z,43.03
2016-07-04T08:48:28.674Z,42.93
2016-07-04T08:49:45.325Z,43.23
2016-07-04T08:50:28.881Z,43.32
2016-07-04T08:51:44.494Z,43.23
2016-07-04T08:52:30.095Z,43.23
2016-07-04T08:53:29.318Z,43.13
2016-07-04T08:54:30.535Z,43.03
2016-07-04T08:55:29.339Z,43.13
2016-07-04T08:56:28.732Z,43.03
2016-07-04T08:57:28.769Z,43.03
2016-07-04T08:58:29.388Z,43.32
2016-07-04T08:59:29.363Z,43.03
2016-07-04T09:26:01.238Z,43.03
2016-07-04T09:27:00.585Z,43.03
2016-07-04T09:28:01.203Z,43.03
2016-07-04T09:29:00.598Z,43.13
2016-07-04T09:30:01.218Z,43.03
2016-07-04T09:31:01.223Z,43.41
2016-07-04T09:32:01.235Z,42.83
2016-07-04T09:33:00.614Z,43.13
2016-07-04T09:34:00.627Z,43.03
2016-07-04T09:35:01.247Z,43.03
2016-07-04T09:36:01.254Z,43.13
2016-07-04T09:37:00.644Z,43.32
2016-07-04T09:38:00.650Z,43.03
2016-07-04T09:39:01.604Z,43.41
2016-07-04T09:40:01.281Z,42.93
2016-07-04T09:41:00.674Z,43.23
2016-07-04T09:42:00.682Z,43.41
2016-07-04T09:43:00.684Z,43.41
2016-07-04T09:44:01.334Z,43.23
2016-07-04T09:45:00.694Z,43.03
2016-07-04T09:46:01.312Z,43.13
2016-07-04T09:47:00.714Z,43.13
2016-07-04T09:48:01.329Z,43.03
2016-07-04T09:49:01.334Z,43.32
2016-07-04T09:50:00.734Z,43.23
2016-07-04T09:51:00.737Z,42.93
2016-07-04T09:52:01.353Z,43.13
2016-07-04T09:53:01.367Z,43.13
2016-07-04T09:54:01.373Z,43.13
2016-07-04T09:55:01.379Z,43.13
2016-07-04T09:56:00.767Z,43.03
2016-07-04T09:57:01.389Z,43.23
2016-07-04T09:58:00.784Z,43.13
2016-07-04T09:59:00.796Z,43.13
2016-07-04T10:00:00.801Z,43.32
2016-07-04T10:01:00.806Z,43.03
2016-07-04T10:02:00.812Z,42.93
2016-07-04T10:03:01.438Z,43.03
2016-07-04T10:04:00.825Z,43.13
2016-07-04T10:05:00.835Z,43.23
2016-07-04T10:06:01.451Z,43.32
2016-07-04T10:07:00.842Z,43.3
2016-07-04T10:08:01.471Z,43.8
2016-07-04T10:09:01.472Z,43.41
2016-07-04T10:10:00.856Z,43.68
2016-07-04T10:11:01.485Z,43.61
2016-07-04T10:12:00.880Z,43.23
2016-07-04T10:13:01.522Z,43.13
2016-07-04T10:14:01.504Z,43.1
2016-07-04T10:15:01.511Z,43.23
2016-07-04T10:16:01.508Z,43.13
2016-07-04T10:17:01.517Z,43.51
2016-07-04T10:18:01.520Z,43.41
2016-07-04T10:19:01.530Z,43.32
2016-07-04T10:20:00.925Z,43.41
2016-07-04T10:21:00.931Z,43.3
2016-07-04T10:22:00.935Z,43.23
2016-07-04T10:23:00.947Z,43.32
2016-07-04T10:24:00.998Z,43.41
2016-07-04T10:25:00.960Z,43.41
2016-07-04T10:26:00.967Z,43.41
2016-07-04T10:27:01.581Z,43.2
2016-07-04T10:28:00.972Z,43.4
2016-07-04T10:29:00.982Z,43.49
2016-07-04T10:30:01.607Z,43.41
2016-07-04T10:31:00.992Z,43.49
2016-07-04T10:32:01.003Z,43.3
2016-07-04T10:33:01.009Z,43.41
2016-07-04T10:34:01.626Z,43.23
2016-07-04T10:35:01.629Z,43.13
2016-07-04T10:36:01.030Z,43.32
2016-07-04T10:37:01.648Z,43.32
2016-07-04T10:38:01.652Z,43.3
2016-07-04T10:39:01.661Z,43.49
2016-07-04T10:40:01.060Z,43.9
2016-07-04T10:41:01.674Z,43.71
2016-07-04T10:42:01.681Z,43.4
2016-07-04T10:43:01.684Z,43.68
2016-07-04T10:44:01.081Z,43.59
2016-07-04T10:45:01.702Z,44.07
2016-07-04T10:46:01.093Z,43.98
2016-07-04T10:47:01.102Z,44.17
2016-07-04T10:48:01.106Z,44.19
2016-07-04T10:49:01.110Z,44.26
2016-07-04T10:50:01.731Z,44.07
2016-07-04T10:51:01.738Z,43.59
2016-07-04T10:52:01.744Z,44.07
2016-07-04T10:53:01.753Z,44.19
2016-07-04T10:54:01.142Z,44.07
2016-07-04T10:55:01.151Z,44.17
2016-07-04T10:56:01.767Z,44.07
2016-07-04T10:57:01.164Z,43.88
2016-07-04T10:58:01.163Z,44.07
2016-07-04T10:59:01.176Z,44.17
2016-07-04T11:00:01.178Z,44.07
2016-07-04T11:01:01.807Z,44.17
2016-07-04T11:02:01.803Z,44.07
2016-07-04T11:03:01.815Z,43.98
2016-07-04T11:04:01.203Z,43.88
2016-07-04T11:05:01.826Z,43.88
2016-07-04T11:06:01.830Z,43.88
2016-07-04T11:07:01.217Z,43.88
2016-07-04T11:08:01.836Z,43.88
2016-07-04T11:09:01.850Z,43.78
2016-07-04T11:10:01.847Z,43.78
2016-07-04T11:11:01.852Z,43.98
2016-07-04T11:12:01.253Z,43.78
2016-07-04T11:13:01.268Z,43.78
2016-07-04T11:14:01.881Z,43.68
2016-07-04T11:15:01.274Z,43.88
2016-07-04T11:16:01.280Z,43.88
2016-07-04T11:17:01.903Z,43.78
2016-07-04T11:18:01.907Z,43.98
2016-07-04T11:19:01.296Z,43.88
2016-07-04T11:20:01.922Z,43.88
2016-07-04T11:21:01.926Z,44.07
2016-07-04T11:22:01.927Z,43.98
2016-07-04T11:23:01.933Z,43.88
2016-07-04T11:24:01.329Z,43.88
2016-07-04T11:25:01.947Z,43.88
2016-07-04T11:26:02.109Z,43.88
2016-07-04T11:27:01.356Z,43.98
2016-07-04T11:28:01.966Z,43.88
2016-07-04T11:29:01.354Z,43.68
2016-07-04T11:30:01.980Z,43.78
2016-07-04T11:31:01.986Z,43.49
2016-07-04T11:32:01.382Z,43.59
2016-07-04T11:33:01.998Z,43.78
2016-07-04T11:34:02.002Z,43.49
2016-07-04T11:35:02.011Z,44.07
2016-07-04T11:36:02.018Z,44.26
2016-07-04T11:37:02.026Z,43.88
2016-07-04T11:38:01.412Z,43.88
2016-07-04T11:39:01.664Z,44.07
2016-07-04T11:40:01.426Z,43.98
2016-07-04T11:41:02.050Z,43.78
2016-07-04T11:42:02.052Z,43.88
2016-07-04T11:43:02.062Z,44.17
2016-07-04T11:44:01.455Z,43.78
2016-07-04T11:45:02.077Z,43.78
2016-07-04T11:46:01.457Z,43.68
2016-07-04T11:47:01.463Z,43.78
2016-07-04T11:48:02.088Z,43.78
2016-07-04T11:49:02.092Z,43.78
2016-07-04T11:50:02.103Z,43.78
2016-07-04T11:51:02.107Z,43.88
2016-07-04T11:52:01.508Z,43.78
2016-07-04T11:53:02.126Z,43.78
2016-07-04T11:54:12.406Z,43.88
2016-07-04T11:55:01.521Z,43.68
2016-07-04T11:56:01.527Z,43.68
2016-07-04T11:57:01.535Z,43.49
2016-07-04T11:58:02.153Z,43.78
2016-07-04T11:59:01.545Z,43.78
2016-07-04T12:00:02.168Z,43.68
2016-07-04T12:01:02.175Z,43.68
2016-07-04T12:02:02.180Z,43.98
2016-07-04T12:03:01.575Z,43.68
2016-07-04T12:04:01.580Z,44.07
2016-07-04T12:05:02.200Z,43.68
2016-07-04T12:06:02.206Z,43.98
2016-07-04T12:07:02.212Z,44.26
2016-07-04T12:08:02.216Z,44.17
2016-07-04T12:09:01.606Z,44.26
2016-07-04T12:10:01.613Z,44.26
2016-07-04T12:11:02.237Z,44.26
2016-07-04T12:12:01.637Z,43.78
2016-07-04T12:13:01.637Z,44.26
2016-07-04T12:14:02.250Z,44.26
2016-07-04T12:15:01.643Z,44.26
2016-07-04T12:16:01.652Z,43.98
2016-07-04T12:17:02.272Z,44.26
2016-07-04T12:18:01.662Z,44.26
2016-07-04T12:19:02.285Z,44.36
2016-07-04T12:20:02.293Z,44.26
2016-07-04T12:21:01.679Z,43.88
2016-07-04T12:22:02.304Z,43.98
2016-07-04T12:23:01.698Z,44.07
2016-07-04T12:24:02.316Z,44.17
2016-07-04T12:25:01.709Z,43.88
2016-07-04T12:26:01.721Z,43.88
2016-07-04T12:27:01.725Z,44.07
2016-07-04T12:28:02.348Z,43.88
2016-07-04T12:29:02.351Z,43.88
2016-07-04T12:30:01.744Z,44.26
2016-07-04T12:31:01.750Z,43.78
2016-07-04T12:32:02.369Z,44.07
2016-07-04T12:33:02.374Z,43.98
2016-07-04T12:34:01.768Z,44.26
2016-07-04T12:35:01.772Z,44.36
2016-07-04T12:36:02.393Z,44.07
2016-07-04T12:37:02.395Z,44.07
2016-07-04T12:38:02.408Z,44.26
2016-07-04T12:39:01.795Z,43.78
2016-07-04T12:40:02.425Z,43.78
2016-07-04T12:41:02.425Z,43.98
2016-07-04T12:42:01.817Z,43.98
2016-07-04T12:43:02.438Z,44.07
2016-07-04T12:44:01.835Z,44.07
2016-07-04T12:45:01.838Z,43.98
2016-07-04T12:46:01.840Z,43.98
2016-07-04T12:47:01.850Z,43.98
2016-07-04T12:48:01.853Z,44.07
2016-07-04T12:49:02.476Z,43.88
2016-07-04T12:50:02.481Z,43.88
2016-07-04T12:51:02.488Z,44.07
2016-07-04T12:52:02.492Z,44.65
2016-07-04T12:53:01.881Z,44.07
2016-07-04T12:54:02.507Z,44.07
2016-07-04T12:55:02.508Z,44.36
2016-07-04T12:56:02.516Z,43.88
2016-07-04T12:57:01.910Z,43.88
2016-07-04T12:58:01.914Z,44.17
2016-07-04T12:59:01.924Z,43.88
2016-07-04T13:00:02.541Z,43.88
2016-07-04T13:01:01.935Z,44.07
2016-07-04T13:02:02.551Z,44.07
2016-07-04T13:03:02.560Z,43.98
2016-07-04T13:04:01.947Z,44.07
2016-07-04T13:05:02.569Z,43.98
2016-07-04T13:06:02.573Z,44.26
2016-07-04T13:07:01.973Z,44.07
2016-07-04T13:08:01.974Z,43.98
2016-07-04T13:09:01.984Z,43.88
2016-07-04T13:10:02.602Z,43.88
2016-07-04T13:11:02.607Z,44.36
2016-07-04T13:12:02.002Z,43.98
2016-07-04T13:13:02.619Z,43.88
2016-07-04T13:14:02.016Z,44.07
2016-07-04T13:15:02.020Z,43.88
2016-07-04T13:16:02.639Z,43.88
2016-07-04T13:17:02.029Z,43.88
2016-07-04T13:18:02.040Z,43.98
2016-07-04T13:19:02.657Z,43.98
2016-07-04T13:20:02.663Z,44.36
2016-07-04T13:21:02.670Z,44.36
2016-07-04T13:22:02.063Z,43.88
2016-07-04T13:23:02.684Z,44.56